Topeka/Forbes Field, Kansas
Current Conditions -  °F | °C
As of 1:53 AM on Saturday 29 Nov 2014 (Local Time) from KFOE Reporting Station
Clear Clear  
Wind Chill: 51°   Ceiling: Unl
Heat Index: 51°   Visibility: 10mi
Dew Point: 40°   Wind: 13mph
Humidity: 66%   Direction: 200°SSW
Pressure: 29.68"   Gusts: NA
Location:  38.95°N, 95.66°W
Report Text: KFOE 290753Z AUTO 20011KT 10SM CLR 11/04 A2968 RMK AO2 SLP048 T01060044
Loading
Personal Weather Stations






























Interactive Weather Map New forecast layout! Learn more

10-Day Weather Forecast

Advertisements
Track Severe Weather on mobile